sensor_id;sensor_type;location;lat;lon;timestamp;pressure;altitude;pressure_sealevel;temperature;humidity
61645;BME280;47553;52.428;13.382;2022-10-16T00:01:22;100593.03;;;14.09;100.00
61645;BME280;47553;52.428;13.382;2022-10-16T00:03:24;100594.13;;;14.07;100.00
61645;BME280;47553;52.428;13.382;2022-10-16T00:05:32;100593.28;;;14.06;100.00
61645;BME280;47553;52.428;13.382;2022-10-16T00:07:34;100601.31;;;14.06;100.00
61645;BME280;47553;52.428;13.382;2022-10-16T00:09:35;100601.72;;;14.13;100.00
61645;BME280;47553;52.428;13.382;2022-10-16T00:11:38;100606.22;;;14.12;100.00
61645;BME280;47553;52.428;13.382;2022-10-16T00:13:42;100603.53;;;14.12;100.00
61645;BME280;47553;52.428;13.382;2022-10-16T00:15:44;100606.09;;;14.14;100.00
61645;BME280;47553;52.428;13.382;2022-10-16T00:17:45;100611.81;;;14.09;100.00
61645;BME280;47553;52.428;13.382;2022-10-16T00:19:47;100612.09;;;14.17;100.00
61645;BME280;47553;52.428;13.382;2022-10-16T00:21:50;100606.88;;;14.27;100.00
61645;BME280;47553;52.428;13.382;2022-10-16T00:23:52;100593.81;;;14.22;100.00
61645;BME280;47553;52.428;13.382;2022-10-16T00:25:55;100602.28;;;14.29;100.00
61645;BME280;47553;52.428;13.382;2022-10-16T00:27:56;100609.22;;;14.32;100.00
61645;BME280;47553;52.428;13.382;2022-10-16T00:29:58;100614.34;;;14.35;100.00
61645;BME280;47553;52.428;13.382;2022-10-16T00:32:04;100621.19;;;14.39;100.00
61645;BME280;47553;52.428;13.382;2022-10-16T00:34:06;100618.53;;;14.39;100.00
61645;BME280;47553;52.428;13.382;2022-10-16T00:36:10;100629.38;;;14.37;100.00
61645;BME280;47553;52.428;13.382;2022-10-16T00:38:13;100626.56;;;14.39;100.00
61645;BME280;47553;52.428;13.382;2022-10-16T00:40:15;100626.56;;;14.39;100.00
61645;BME280;47553;52.428;13.382;2022-10-16T00:42:18;100622.06;;;14.39;100.00
61645;BME280;47553;52.428;13.382;2022-10-16T00:44:42;100614.88;;;14.40;100.00
61645;BME280;47553;52.428;13.382;2022-10-16T00:46:45;100622.91;;;14.40;100.00
61645;BME280;47553;52.428;13.382;2022-10-16T00:48:50;100617.09;;;14.46;100.00
61645;BME280;47553;52.428;13.382;2022-10-16T00:50:53;100619.72;;;14.35;100.00
61645;BME280;47553;52.428;13.382;2022-10-16T00:52:55;100615.78;;;14.27;100.00
61645;BME280;47553;52.428;13.382;2022-10-16T00:55:00;100624.06;;;14.24;100.00
61645;BME280;47553;52.428;13.382;2022-10-16T00:57:04;100630.19;;;14.26;100.00
61645;BME280;47553;52.428;13.382;2022-10-16T00:59:11;100626.75;;;14.24;100.00
61645;BME280;47553;52.428;13.382;2022-10-16T01:01:15;100636.28;;;14.29;100.00
61645;BME280;47553;52.428;13.382;2022-10-16T01:03:25;100623.59;;;14.31;100.00
61645;BME280;47553;52.428;13.382;2022-10-16T01:05:33;100627.72;;;14.23;100.00
61645;BME280;47553;52.428;13.382;2022-10-16T01:07:45;100623.56;;;14.19;100.00
61645;BME280;47553;52.428;13.382;2022-10-16T01:10:00;100631.38;;;14.22;100.00
61645;BME280;47553;52.428;13.382;2022-10-16T01:12:08;100622.94;;;14.16;100.00
61645;BME280;47553;52.428;13.382;2022-10-16T01:14:15;100625.22;;;14.09;100.00
61645;BME280;47553;52.428;13.382;2022-10-16T01:16:27;100626.94;;;14.10;100.00
61645;BME280;47553;52.428;13.382;2022-10-16T01:18:33;100629.09;;;14.05;100.00
61645;BME280;47553;52.428;13.382;2022-10-16T01:20:42;100640.81;;;14.04;100.00
61645;BME280;47553;52.428;13.382;2022-10-16T01:22:56;100644.78;;;13.99;100.00
61645;BME280;47553;52.428;13.382;2022-10-16T01:25:05;100640.63;;;13.94;100.00
61645;BME280;47553;52.428;13.382;2022-10-16T01:27:13;100644.38;;;13.92;100.00
61645;BME280;47553;52.428;13.382;2022-10-16T01:29:18;100655.13;;;13.92;100.00
61645;BME280;47553;52.428;13.382;2022-10-16T01:31:24;100655.53;;;13.86;100.00
61645;BME280;47553;52.428;13.382;2022-10-16T01:33:30;100657.16;;;13.88;100.00
61645;BME280;47553;52.428;13.382;2022-10-16T01:35:39;100660.88;;;13.86;100.00
61645;BME280;47553;52.428;13.382;2022-10-16T01:37:48;100663.56;;;13.86;100.00
61645;BME280;47553;52.428;13.382;2022-10-16T01:39:55;100667.22;;;13.85;100.00
61645;BME280;47553;52.428;13.382;2022-10-16T01:42:04;100668.19;;;13.84;100.00
61645;BME280;47553;52.428;13.382;2022-10-16T01:44:11;100671.19;;;13.79;100.00
61645;BME280;47553;52.428;13.382;2022-10-16T01:46:18;100668.09;;;13.73;100.00
61645;BME280;47553;52.428;13.382;2022-10-16T01:48:23;100668.09;;;13.73;100.00
61645;BME280;47553;52.428;13.382;2022-10-16T01:50:26;100666.06;;;13.76;100.00
61645;BME280;47553;52.428;13.382;2022-10-16T01:52:29;100664.34;;;13.75;100.00
61645;BME280;47553;52.428;13.382;2022-10-16T01:54:32;100667.88;;;13.76;100.00
61645;BME280;47553;52.428;13.382;2022-10-16T01:56:36;100674.00;;;13.78;100.00
61645;BME280;47553;52.428;13.382;2022-10-16T01:58:43;100674.50;;;13.83;100.00
61645;BME280;47553;52.428;13.382;2022-10-16T02:00:47;100676.47;;;13.81;100.00
61645;BME280;47553;52.428;13.382;2022-10-16T02:02:51;100675.25;;;13.85;100.00
61645;BME280;47553;52.428;13.382;2022-10-16T02:04:57;100682.16;;;13.89;100.00
61645;BME280;47553;52.428;13.382;2022-10-16T02:06:59;100685.91;;;13.86;100.00
61645;BME280;47553;52.428;13.382;2022-10-16T02:09:01;100680.44;;;13.88;100.00
61645;BME280;47553;52.428;13.382;2022-10-16T02:11:03;100685.56;;;13.91;100.00
61645;BME280;47553;52.428;13.382;2022-10-16T02:13:07;100682.34;;;13.86;100.00
61645;BME280;47553;52.428;13.382;2022-10-16T02:15:10;100699.72;;;13.93;100.00
61645;BME280;47553;52.428;13.382;2022-10-16T02:17:15;100705.09;;;13.93;100.00
61645;BME280;47553;52.428;13.382;2022-10-16T02:19:18;100694.47;;;13.91;100.00
61645;BME280;47553;52.428;13.382;2022-10-16T02:21:25;100698.00;;;13.92;100.00
61645;BME280;47553;52.428;13.382;2022-10-16T02:23:34;100703.03;;;13.97;100.00
61645;BME280;47553;52.428;13.382;2022-10-16T02:25:40;100704.88;;;13.96;100.00
61645;BME280;47553;52.428;13.382;2022-10-16T02:27:47;100700.13;;;14.00;100.00
61645;BME280;47553;52.428;13.382;2022-10-16T02:29:54;100683.41;;;13.96;100.00
61645;BME280;47553;52.428;13.382;2022-10-16T02:32:01;100689.28;;;14.01;100.00
61645;BME280;47553;52.428;13.382;2022-10-16T02:34:06;100692.94;;;14.00;100.00
61645;BME280;47553;52.428;13.382;2022-10-16T02:36:08;100698.66;;;13.96;100.00
61645;BME280;47553;52.428;13.382;2022-10-16T02:38:11;100687.50;;;13.89;100.00
61645;BME280;47553;52.428;13.382;2022-10-16T02:40:14;100701.53;;;13.92;100.00
61645;BME280;47553;52.428;13.382;2022-10-16T02:42:20;100703.38;;;13.92;100.00
61645;BME280;47553;52.428;13.382;2022-10-16T02:44:22;100701.66;;;13.91;100.00
61645;BME280;47553;52.428;13.382;2022-10-16T02:46:23;100700.47;;;13.95;100.00
61645;BME280;47553;52.428;13.382;2022-10-16T02:48:25;100693.91;;;13.99;100.00
61645;BME280;47553;52.428;13.382;2022-10-16T02:50:28;100699.28;;;13.99;100.00
61645;BME280;47553;52.428;13.382;2022-10-16T02:52:29;100704.75;;;13.98;100.00
61645;BME280;47553;52.428;13.382;2022-10-16T02:54:31;100702.28;;;13.94;100.00
61645;BME280;47553;52.428;13.382;2022-10-16T02:56:33;100704.88;;;13.96;100.00
61645;BME280;47553;52.428;13.382;2022-10-16T02:58:34;100699.72;;;13.93;100.00
61645;BME280;47553;52.428;13.382;2022-10-16T03:00:36;100704.88;;;13.96;100.00
61645;BME280;47553;52.428;13.382;2022-10-16T03:02:37;100698.66;;;13.96;100.00
61645;BME280;47553;52.428;13.382;2022-10-16T03:04:39;100697.78;;;13.95;100.00
61645;BME280;47553;52.428;13.382;2022-10-16T03:06:42;100712.91;;;13.96;100.00
61645;BME280;47553;52.428;13.382;2022-10-16T03:08:44;100711.53;;;13.90;100.00
61645;BME280;47553;52.428;13.382;2022-10-16T03:10:45;100719.69;;;13.89;100.00
61645;BME280;47553;52.428;13.382;2022-10-16T03:12:47;100720.75;;;13.86;100.00
61645;BME280;47553;52.428;13.382;2022-10-16T03:14:51;100724.72;;;13.81;100.00
61645;BME280;47553;52.428;13.382;2022-10-16T03:16:52;100734.25;;;13.85;100.00
61645;BME280;47553;52.428;13.382;2022-10-16T03:18:54;100736.19;;;13.83;100.00
61645;BME280;47553;52.428;13.382;2022-10-16T03:20:55;100722.03;;;13.81;100.00
61645;BME280;47553;52.428;13.382;2022-10-16T03:22:58;100710.34;;;13.82;100.00
61645;BME280;47553;52.428;13.382;2022-10-16T03:25:00;100711.09;;;13.84;100.00
61645;BME280;47553;52.428;13.382;2022-10-16T03:27:01;100712.16;;;13.81;100.00
61645;BME280;47553;52.428;13.382;2022-10-16T03:29:03;100727.38;;;13.81;100.00
61645;BME280;47553;52.428;13.382;2022-10-16T03:31:05;100729.84;;;13.84;100.00
61645;BME280;47553;52.428;13.382;2022-10-16T03:33:07;100743.25;;;13.84;100.00
61645;BME280;47553;52.428;13.382;2022-10-16T03:35:08;100741.75;;;13.80;100.00
61645;BME280;47553;52.428;13.382;2022-10-16T03:37:10;100748.31;;;13.76;100.00
61645;BME280;47553;52.428;13.382;2022-10-16T03:39:13;100744.97;;;13.72;100.00
61645;BME280;47553;52.428;13.382;2022-10-16T03:41:14;100748.31;;;13.76;100.00
61645;BME280;47553;52.428;13.382;2022-10-16T03:43:16;100755.72;;;13.72;100.00
61645;BME280;47553;52.428;13.382;2022-10-16T03:45:17;100764.19;;;13.66;100.00
61645;BME280;47553;52.428;13.382;2022-10-16T03:47:19;100759.16;;;13.61;100.00
61645;BME280;47553;52.428;13.382;2022-10-16T03:49:20;100757.66;;;13.57;100.00
61645;BME280;47553;52.428;13.382;2022-10-16T03:51:22;100762.03;;;13.58;100.00
61645;BME280;47553;52.428;13.382;2022-10-16T03:53:24;100752.28;;;13.57;100.00
61645;BME280;47553;52.428;13.382;2022-10-16T03:55:27;100765.47;;;13.60;100.00
61645;BME280;47553;52.428;13.382;2022-10-16T03:57:29;100762.25;;;13.55;100.00
61645;BME280;47553;52.428;13.382;2022-10-16T03:59:30;100773.94;;;13.54;100.00
61645;BME280;47553;52.428;13.382;2022-10-16T04:01:32;100776.09;;;13.49;100.00
61645;BME280;47553;52.428;13.382;2022-10-16T04:03:34;100784.13;;;13.49;100.00
61645;BME280;47553;52.428;13.382;2022-10-16T04:05:36;100775.22;;;13.49;100.00
61645;BME280;47553;52.428;13.382;2022-10-16T04:07:37;100786.81;;;13.49;100.00
61645;BME280;47553;52.428;13.382;2022-10-16T04:09:39;100791.94;;;13.52;100.00
61645;BME280;47553;52.428;13.382;2022-10-16T04:11:42;100797.31;;;13.52;100.00
61645;BME280;47553;52.428;13.382;2022-10-16T04:13:43;100787.56;;;13.51;100.00
61645;BME280;47553;52.428;13.382;2022-10-16T04:15:45;100777.59;;;13.53;100.00
61645;BME280;47553;52.428;13.382;2022-10-16T04:17:47;100790.44;;;13.48;100.00
61645;BME280;47553;52.428;13.382;2022-10-16T04:19:49;100789.47;;;13.49;100.00
61645;BME280;47553;52.428;13.382;2022-10-16T04:21:50;100772.13;;;13.42;100.00
61645;BME280;47553;52.428;13.382;2022-10-16T04:23:52;100773.72;;;13.45;100.00
61645;BME280;47553;52.428;13.382;2022-10-16T04:25:53;100777.81;;;13.50;100.00
61645;BME280;47553;52.428;13.382;2022-10-16T04:27:56;100778.00;;;13.47;100.00
61645;BME280;47553;52.428;13.382;2022-10-16T04:29:58;100777.03;;;13.48;100.00
61645;BME280;47553;52.428;13.382;2022-10-16T04:31:59;100769.22;;;13.45;100.00
61645;BME280;47553;52.428;13.382;2022-10-16T04:34:01;100768.25;;;13.46;100.00
61645;BME280;47553;52.428;13.382;2022-10-16T04:36:03;100776.28;;;13.46;100.00
61645;BME280;47553;52.428;13.382;2022-10-16T04:38:05;100754.88;;;13.46;100.00
61645;BME280;47553;52.428;13.382;2022-10-16T04:40:07;100757.84;;;13.42;100.00
61645;BME280;47553;52.428;13.382;2022-10-16T04:42:09;100756.97;;;13.41;100.00
61645;BME280;47553;52.428;13.382;2022-10-16T04:44:12;100754.22;;;13.43;100.00
61645;BME280;47553;52.428;13.382;2022-10-16T04:46:13;100752.03;;;13.35;100.00
61645;BME280;47553;52.428;13.382;2022-10-16T04:48:15;100757.41;;;13.35;100.00
61645;BME280;47553;52.428;13.382;2022-10-16T04:50:16;100772.63;;;13.35;100.00
61645;BME280;47553;52.428;13.382;2022-10-16T04:52:18;100772.72;;;13.33;100.00
61645;BME280;47553;52.428;13.382;2022-10-16T04:54:19;100777.13;;;13.34;100.00
61645;BME280;47553;52.428;13.382;2022-10-16T04:56:21;100773.56;;;13.34;100.00
61645;BME280;47553;52.428;13.382;2022-10-16T04:58:23;100766.63;;;13.31;100.00
61645;BME280;47553;52.428;13.382;2022-10-16T05:00:26;100768.09;;;13.22;100.00
61645;BME280;47553;52.428;13.382;2022-10-16T05:02:27;100775.19;;;13.23;100.00
61645;BME280;47553;52.428;13.382;2022-10-16T05:04:29;100785.03;;;13.23;100.00
61645;BME280;47553;52.428;13.382;2022-10-16T05:06:30;100799.59;;;13.19;100.00
61645;BME280;47553;52.428;13.382;2022-10-16T05:08:32;100798.94;;;13.15;100.00
61645;BME280;47553;52.428;13.382;2022-10-16T05:10:34;100797.63;;;13.08;100.00
61645;BME280;47553;52.428;13.382;2022-10-16T05:12:35;100802.53;;;13.02;100.00
61645;BME280;47553;52.428;13.382;2022-10-16T05:14:37;100800.19;;;13.10;100.00
61645;BME280;47553;52.428;13.382;2022-10-16T05:16:40;100807.09;;;13.14;100.00
61645;BME280;47553;52.428;13.382;2022-10-16T05:18:41;100808.13;;;13.11;100.00
61645;BME280;47553;52.428;13.382;2022-10-16T05:20:43;100803.81;;;13.09;100.00
61645;BME280;47553;52.428;13.382;2022-10-16T05:22:44;100819.03;;;13.08;100.00
61645;BME280;47553;52.428;13.382;2022-10-16T05:24:47;100819.88;;;13.09;100.00
61645;BME280;47553;52.428;13.382;2022-10-16T05:26:49;100812.28;;;13.03;100.00
61645;BME280;47553;52.428;13.382;2022-10-16T05:28:50;100800.81;;;13.00;100.00
61645;BME280;47553;52.428;13.382;2022-10-16T05:30:52;100805.31;;;13.00;100.00
61645;BME280;47553;52.428;13.382;2022-10-16T05:32:55;100806.72;;;13.06;100.00
61645;BME280;47553;52.428;13.382;2022-10-16T05:34:57;100805.31;;;13.00;100.00
61645;BME280;47553;52.428;13.382;2022-10-16T05:36:58;100802.19;;;12.93;100.00
61645;BME280;47553;52.428;13.382;2022-10-16T05:39:00;100804.25;;;13.03;100.00
61645;BME280;47553;52.428;13.382;2022-10-16T05:41:01;100798.53;;;12.94;100.00
61645;BME280;47553;52.428;13.382;2022-10-16T05:43:03;100802.72;;;12.98;100.00
61645;BME280;47553;52.428;13.382;2022-10-16T05:45:06;100797.16;;;13.02;100.00
61645;BME280;47553;52.428;13.382;2022-10-16T05:47:08;100808.53;;;13.05;100.00
61645;BME280;47553;52.428;13.382;2022-10-16T05:49:11;100818.38;;;13.05;100.00
61645;BME280;47553;52.428;13.382;2022-10-16T05:51:14;100820.56;;;13.12;100.00
61645;BME280;47553;52.428;13.382;2022-10-16T05:53:15;100823.69;;;13.19;100.00
61645;BME280;47553;52.428;13.382;2022-10-16T05:55:17;100813.75;;;13.21;100.00
61645;BME280;47553;52.428;13.382;2022-10-16T05:57:19;100816.72;;;13.16;100.00
61645;BME280;47553;52.428;13.382;2022-10-16T05:59:20;100821.22;;;13.16;100.00
61645;BME280;47553;52.428;13.382;2022-10-16T06:01:22;100821.03;;;13.19;100.00
61645;BME280;47553;52.428;13.382;2022-10-16T06:03:24;100817.28;;;13.21;100.00
61645;BME280;47553;52.428;13.382;2022-10-16T06:05:27;100816.53;;;13.19;100.00
61645;BME280;47553;52.428;13.382;2022-10-16T06:07:28;100822.84;;;13.18;100.00
61645;BME280;47553;52.428;13.382;2022-10-16T06:09:30;100828.84;;;13.22;100.00
61645;BME280;47553;52.428;13.382;2022-10-16T06:11:32;100823.19;;;13.26;100.00
61645;BME280;47553;52.428;13.382;2022-10-16T06:13:34;100842.91;;;13.38;100.00
61645;BME280;47553;52.428;13.382;2022-10-16T06:15:37;100839.09;;;13.42;100.00
61645;BME280;47553;52.428;13.382;2022-10-16T06:17:38;100831.72;;;13.46;100.00
61645;BME280;47553;52.428;13.382;2022-10-16T06:19:41;100828.59;;;13.52;100.00
61645;BME280;47553;52.428;13.382;2022-10-16T06:21:44;100830.97;;;13.56;100.00
61645;BME280;47553;52.428;13.382;2022-10-16T06:23:46;100834.19;;;13.61;100.00
61645;BME280;47553;52.428;13.382;2022-10-16T06:25:48;100837.41;;;13.67;100.00
61645;BME280;47553;52.428;13.382;2022-10-16T06:27:49;100836.75;;;13.76;100.00
61645;BME280;47553;52.428;13.382;2022-10-16T06:29:51;100829.78;;;13.86;100.00
61645;BME280;47553;52.428;13.382;2022-10-16T06:31:52;100831.72;;;13.84;100.00
61645;BME280;47553;52.428;13.382;2022-10-16T06:33:54;100845.13;;;13.84;100.00
61645;BME280;47553;52.428;13.382;2022-10-16T06:36:00;100850.94;;;13.90;100.00
61645;BME280;47553;52.428;13.382;2022-10-16T06:38:03;100849.00;;;13.92;100.00
61645;BME280;47553;52.428;13.382;2022-10-16T06:40:05;100869.59;;;14.05;100.00
61645;BME280;47553;52.428;13.382;2022-10-16T06:42:07;100858.22;;;14.01;100.00
61645;BME280;47553;52.428;13.382;2022-10-16T06:44:08;100871.75;;;14.00;100.00
61645;BME280;47553;52.428;13.382;2022-10-16T06:46:11;100882.38;;;14.01;100.00
61645;BME280;47553;52.428;13.382;2022-10-16T06:48:13;100873.69;;;13.98;100.00
61645;BME280;47553;52.428;13.382;2022-10-16T06:50:14;100874.53;;;14.11;100.00
61645;BME280;47553;52.428;13.382;2022-10-16T06:52:16;100873.25;;;14.16;100.00
61645;BME280;47553;52.428;13.382;2022-10-16T06:54:19;100866.16;;;14.15;100.00
61645;BME280;47553;52.428;13.382;2022-10-16T06:56:22;100865.09;;;14.18;100.00
61645;BME280;47553;52.428;13.382;2022-10-16T06:58:24;100882.88;;;14.32;100.00
61645;BME280;47553;52.428;13.382;2022-10-16T07:00:25;100873.56;;;14.24;100.00
61645;BME280;47553;52.428;13.382;2022-10-16T07:02:27;100874.09;;;14.30;100.00
61645;BME280;47553;52.428;13.382;2022-10-16T07:04:29;100878.06;;;14.24;100.00
61645;BME280;47553;52.428;13.382;2022-10-16T07:06:33;100876.13;;;14.26;100.00
61645;BME280;47553;52.428;13.382;2022-10-16T07:08:37;100879.53;;;14.41;100.00
61645;BME280;47553;52.428;13.382;2022-10-16T07:10:40;100890.34;;;14.52;100.00
61645;BME280;47553;52.428;13.382;2022-10-16T07:12:42;100897.66;;;14.75;100.00
61645;BME280;47553;52.428;13.382;2022-10-16T07:14:43;100909.63;;;14.95;100.00
61645;BME280;47553;52.428;13.382;2022-10-16T07:16:45;100910.53;;;15.07;100.00
61645;BME280;47553;52.428;13.382;2022-10-16T07:18:47;100910.38;;;15.21;100.00
61645;BME280;47553;52.428;13.382;2022-10-16T07:20:49;100905.03;;;15.32;100.00
61645;BME280;47553;52.428;13.382;2022-10-16T07:22:50;100891.19;;;15.38;100.00
61645;BME280;47553;52.428;13.382;2022-10-16T07:24:54;100900.28;;;15.60;100.00
61645;BME280;47553;52.428;13.382;2022-10-16T07:26:57;100897.19;;;15.77;100.00
61645;BME280;47553;52.428;13.382;2022-10-16T07:28:59;100912.16;;;15.92;100.00
61645;BME280;47553;52.428;13.382;2022-10-16T07:31:01;100909.03;;;16.09;100.00
61645;BME280;47553;52.428;13.382;2022-10-16T07:33:03;100916.88;;;16.24;100.00
61645;BME280;47553;52.428;13.382;2022-10-16T07:35:06;100900.47;;;16.27;100.00
61645;BME280;47553;52.428;13.382;2022-10-16T07:37:07;100893.88;;;16.31;100.00
61645;BME280;47553;52.428;13.382;2022-10-16T07:39:09;100900.97;;;16.43;100.00
61645;BME280;47553;52.428;13.382;2022-10-16T07:41:12;100909.03;;;16.43;100.00
61645;BME280;47553;52.428;13.382;2022-10-16T07:43:15;100909.53;;;16.26;100.00
61645;BME280;47553;52.428;13.382;2022-10-16T07:45:17;100910.88;;;16.20;100.00
61645;BME280;47553;52.428;13.382;2022-10-16T07:47:18;100914.41;;;16.09;100.00
61645;BME280;47553;52.428;13.382;2022-10-16T07:49:20;100907.94;;;16.12;100.00
61645;BME280;47553;52.428;13.382;2022-10-16T07:51:23;100919.00;;;16.07;100.00
61645;BME280;47553;52.428;13.382;2022-10-16T07:53:25;100916.13;;;16.10;100.00
61645;BME280;47553;52.428;13.382;2022-10-16T07:55:27;100918.28;;;16.05;100.00
61645;BME280;47553;52.428;13.382;2022-10-16T07:57:29;100915.56;;;15.94;100.00
61645;BME280;47553;52.428;13.382;2022-10-16T07:59:31;100907.75;;;16.02;100.00
61645;BME280;47553;52.428;13.382;2022-10-16T08:01:33;100911.59;;;16.11;100.00
61645;BME280;47553;52.428;13.382;2022-10-16T08:03:35;100923.63;;;15.94;100.00
61645;BME280;47553;52.428;13.382;2022-10-16T08:05:37;100931.72;;;15.94;100.00
61645;BME280;47553;52.428;13.382;2022-10-16T08:07:38;100936.38;;;16.03;100.00
61645;BME280;47553;52.428;13.382;2022-10-16T08:09:40;100925.63;;;16.03;100.00
61645;BME280;47553;52.428;13.382;2022-10-16T08:11:41;100931.50;;;16.08;100.00
61645;BME280;47553;52.428;13.382;2022-10-16T08:13:44;100946.16;;;16.04;100.00
61645;BME280;47553;52.428;13.382;2022-10-16T08:15:47;100955.56;;;15.99;100.00
61645;BME280;47553;52.428;13.382;2022-10-16T08:17:57;100950.19;;;15.99;100.00
61645;BME280;47553;52.428;13.382;2022-10-16T08:19:59;100947.84;;;15.94;100.00
61645;BME280;47553;52.428;13.382;2022-10-16T08:22:01;100956.81;;;16.06;100.00
61645;BME280;47553;52.428;13.382;2022-10-16T08:24:03;100950.13;;;16.11;100.00
61645;BME280;47553;52.428;13.382;2022-10-16T08:26:06;100940.09;;;16.25;100.00
61645;BME280;47553;52.428;13.382;2022-10-16T08:28:10;100946.47;;;16.35;100.00
61645;BME280;47553;52.428;13.382;2022-10-16T08:30:12;100942.81;;;16.58;100.00
61645;BME280;47553;52.428;13.382;2022-10-16T08:32:15;100939.41;;;16.67;100.00
61645;BME280;47553;52.428;13.382;2022-10-16T08:34:17;100928.63;;;16.78;100.00
61645;BME280;47553;52.428;13.382;2022-10-16T08:36:19;100949.31;;;17.00;100.00
61645;BME280;47553;52.428;13.382;2022-10-16T08:38:21;100954.09;;;16.97;100.00
61645;BME280;47553;52.428;13.382;2022-10-16T08:40:25;100954.34;;;16.94;100.00
61645;BME280;47553;52.428;13.382;2022-10-16T08:42:41;100948.72;;;16.97;100.00
61645;BME280;47553;52.428;13.382;2022-10-16T08:45:03;100944.78;;;17.01;100.00
61645;BME280;47553;52.428;13.382;2022-10-16T08:47:13;100948.47;;;17.00;100.00
61645;BME280;47553;52.428;13.382;2022-10-16T08:49:20;100944.06;;;16.88;100.00
61645;BME280;47553;52.428;13.382;2022-10-16T08:51:23;100951.41;;;16.97;100.00
61645;BME280;47553;52.428;13.382;2022-10-16T08:53:33;100951.28;;;16.98;100.00
61645;BME280;47553;52.428;13.382;2022-10-16T08:55:41;100958.53;;;16.87;100.00
61645;BME280;47553;52.428;13.382;2022-10-16T08:57:46;100955.56;;;16.78;100.00
61645;BME280;47553;52.428;13.382;2022-10-16T08:59:47;100953.59;;;16.81;100.00
61645;BME280;47553;52.428;13.382;2022-10-16T09:01:50;100963.41;;;16.70;100.00
61645;BME280;47553;52.428;13.382;2022-10-16T09:04:05;100971.97;;;16.75;100.00
61645;BME280;47553;52.428;13.382;2022-10-16T09:06:28;100969.88;;;16.68;100.00
61645;BME280;47553;52.428;13.382;2022-10-16T09:08:38;100971.97;;;16.75;100.00
61645;BME280;47553;52.428;13.382;2022-10-16T09:10:48;100971.97;;;16.98;100.00
61645;BME280;47553;52.428;13.382;2022-10-16T09:12:59;100982.69;;;17.31;100.00
61645;BME280;47553;52.428;13.382;2022-10-16T09:15:14;100985.81;;;17.48;100.00
61645;BME280;47553;52.428;13.382;2022-10-16T09:17:27;100996.09;;;17.54;100.00
61645;BME280;47553;52.428;13.382;2022-10-16T09:19:34;100996.88;;;17.45;100.00
61645;BME280;47553;52.428;13.382;2022-10-16T09:21:41;100986.72;;;17.37;100.00
61645;BME280;47553;52.428;13.382;2022-10-16T09:23:43;100988.97;;;17.21;100.00
61645;BME280;47553;52.428;13.382;2022-10-16T09:25:48;100991.19;;;17.16;100.00
61645;BME280;47553;52.428;13.382;2022-10-16T09:27:52;100988.59;;;17.14;100.00
61645;BME280;47553;52.428;13.382;2022-10-16T09:29:54;100983.94;;;17.16;100.00
61645;BME280;47553;52.428;13.382;2022-10-16T09:32:10;100982.75;;;17.09;100.00
61645;BME280;47553;52.428;13.382;2022-10-16T09:34:29;100985.06;;;17.02;100.00
61645;BME280;47553;52.428;13.382;2022-10-16T09:36:36;100986.19;;;17.00;100.00
61645;BME280;47553;52.428;13.382;2022-10-16T09:38:42;100986.44;;;16.97;100.00
61645;BME280;47553;52.428;13.382;2022-10-16T09:40:43;100992.44;;;17.00;100.00
61645;BME280;47553;52.428;13.382;2022-10-16T09:42:45;100995.75;;;16.93;100.00
61645;BME280;47553;52.428;13.382;2022-10-16T09:44:48;100996.97;;;17.00;100.00
61645;BME280;47553;52.428;13.382;2022-10-16T09:47:00;101010.03;;;17.27;100.00
61645;BME280;47553;52.428;13.382;2022-10-16T09:49:16;100999.34;;;17.36;100.00
61645;BME280;47553;52.428;13.382;2022-10-16T09:51:22;101005.22;;;17.41;100.00
61645;BME280;47553;52.428;13.382;2022-10-16T09:53:26;101009.75;;;17.41;100.00
61645;BME280;47553;52.428;13.382;2022-10-16T09:55:29;101010.50;;;17.32;100.00
61645;BME280;47553;52.428;13.382;2022-10-16T09:57:31;101015.53;;;17.25;100.00
61645;BME280;47553;52.428;13.382;2022-10-16T09:59:33;101012.13;;;17.23;100.00
61645;BME280;47553;52.428;13.382;2022-10-16T10:01:37;101014.06;;;17.21;100.00
61645;BME280;47553;52.428;13.382;2022-10-16T10:03:40;101020.44;;;17.20;100.00
61645;BME280;47553;52.428;13.382;2022-10-16T10:05:47;101027.19;;;17.26;100.00
61645;BME280;47553;52.428;13.382;2022-10-16T10:07:55;101029.97;;;17.35;100.00
61645;BME280;47553;52.428;13.382;2022-10-16T10:09:57;101035.84;;;17.40;100.00
61645;BME280;47553;52.428;13.382;2022-10-16T10:12:00;101043.53;;;17.56;100.00
61645;BME280;47553;52.428;13.382;2022-10-16T10:14:18;101045.25;;;17.57;98.93
61645;BME280;47553;52.428;13.382;2022-10-16T10:16:23;101038.78;;;17.60;98.17
61645;BME280;47553;52.428;13.382;2022-10-16T10:18:25;101038.91;;;17.69;98.45
61645;BME280;47553;52.428;13.382;2022-10-16T10:20:28;101035.59;;;17.66;97.33
61645;BME280;47553;52.428;13.382;2022-10-16T10:22:32;101026.41;;;17.68;96.65
61645;BME280;47553;52.428;13.382;2022-10-16T10:24:40;101041.22;;;17.74;96.48
61645;BME280;47553;52.428;13.382;2022-10-16T10:26:47;101042.44;;;17.70;95.75
61645;BME280;47553;52.428;13.382;2022-10-16T10:28:55;101038.50;;;17.74;95.54
61645;BME280;47553;52.428;13.382;2022-10-16T10:31:06;101033.13;;;17.74;95.06